Detall de PIREP

Printer-friendly versionPDF version

[2017/04/23 08:15:00]
Flight IATA:CT2200
Pilot Number:012
Company ICAO:CAT
Aircraft Type:AT72/F
PAX:53
Departing Airport: LFMP
Destination Airport: LFOH
Alternate Airport:LFPG
Online: VATSIM
Route:SIJAN A27 BRY UM729 RESMI UN491 PIGOP UN160 CAN
Flight Level:F220
No Slew and time accel
No pause
Crash detect
Detect pilot in Cockpit between each 30 and 45 minutes
08:15 Zero fuel Weight: 40674 Lbs, Fuel Weight: 7378 Lbs
08:15 VATSIM:LFMP 230800Z AUTO VRB01KT CAVOK 18/06 Q1019 NOSIG
08:15 VATSIM:LFOH 230800Z AUTO 13006KT 090V160 CAVOK 09/02 Q1028 NOSIG
08:16 Parking Brakes off
08:18 Take-off
08:18 Take off Weight: 48013 Lbs
08:18 Wind: 359º @ 003 Knots Heading: 329º
08:18 POS N42º 44´ 52´´ E002º 52´ 00´´
08:18 Flaps:1 at 131 Knots
08:18 Gear Up: 133 Knots
08:19 Flaps:0 at 144 Knots
08:33 Wind:300º@007 Knots Heading: 005º Ground Speed: 231 Knots Altitude 18379 ft
08:38 TOC
08:38 Fuel Weight: 6705 Lb
08:48 Wind:304º@008 Knots Heading: 001º Ground Speed: 274 Knots Altitude 22178 ft
09:03 Wind:306º@010 Knots Heading: 359º Ground Speed: 274 Knots Altitude 22283 ft
09:18 Wind:311º@009 Knots Heading: 351º Ground Speed: 273 Knots Altitude 22329 ft
09:33 Wind:301º@019 Knots Heading: 349º Ground Speed: 268 Knots Altitude 22378 ft
09:48 Wind:292º@018 Knots Heading: 285º Ground Speed: 261 Knots Altitude 22404 ft
10:03 Wind:313º@029 Knots Heading: 293º Ground Speed: 254 Knots Altitude 22424 ft
10:07 TOD
10:07 Fuel Weight: 4222 Lb
10:18 Wind:333º@012 Knots Heading: 040º Ground Speed: 235 Knots Altitude 8520 ft
10:24 Flaps:1 at 193 Knots
10:24 Flaps:2 at 150 Knots
10:24 Gear Down: 145 Knots
10:29 TouchDown:Rate -187 ft/min Speed: 111 Knots
10:29 Flaps:0 at 65 Knots
10:29 VATSIM:LFOH 231000Z AUTO 10004KT 040V170 CAVOK 12/03 Q1028 NOSIG
10:29 Land
10:29 Wind:109º@005 Knots
10:29 Heading: 231º
10:29 Flight Duration: 02:11
10:29 Landing Weight: 44568 Lbs
10:29 POS N49º 32´ 04´´ E000º 05´ 20´´
10:30 Parking brakes on
10:30 Block to Block Duration: 02:14
10:30 Final Fuel: 3886 Lbls
10:30 Spent Fuel: 3492 Lbls
10:30 Flight Length: 548 NM
10:30 TOD Land Length: 79 NM

Exportar CSV

Powered by Drupal - Modified by Danger4k